sensor_id;sensor_type;location;lat;lon;timestamp;P1;durP1;ratioP1;P2;durP2;ratioP2
22768;SDS011;13001;51.968;5.918;2023-04-03T00:01:54;514.97;;;473.53;;
22768;SDS011;13001;51.968;5.918;2023-04-03T00:04:21;538.13;;;494.70;;
22768;SDS011;13001;51.968;5.918;2023-04-03T00:06:48;485.87;;;447.20;;
22768;SDS011;13001;51.968;5.918;2023-04-03T00:09:16;517.50;;;476.43;;
22768;SDS011;13001;51.968;5.918;2023-04-03T00:11:43;504.47;;;464.60;;
22768;SDS011;13001;51.968;5.918;2023-04-03T00:14:10;512.50;;;471.10;;
22768;SDS011;13001;51.968;5.918;2023-04-03T00:16:37;545.57;;;499.20;;
22768;SDS011;13001;51.968;5.918;2023-04-03T00:19:05;520.37;;;479.53;;
22768;SDS011;13001;51.968;5.918;2023-04-03T00:21:32;560.70;;;515.63;;
22768;SDS011;13001;51.968;5.918;2023-04-03T00:23:59;522.40;;;481.87;;
22768;SDS011;13001;51.968;5.918;2023-04-03T00:26:26;518.43;;;478.07;;
22768;SDS011;13001;51.968;5.918;2023-04-03T00:28:54;517.80;;;477.70;;
22768;SDS011;13001;51.968;5.918;2023-04-03T00:31:22;512.87;;;473.90;;
22768;SDS011;13001;51.968;5.918;2023-04-03T00:33:49;479.33;;;443.20;;
22768;SDS011;13001;51.968;5.918;2023-04-03T00:36:16;451.73;;;419.10;;
22768;SDS011;13001;51.968;5.918;2023-04-03T00:38:44;535.07;;;491.50;;
22768;SDS011;13001;51.968;5.918;2023-04-03T00:41:11;476.57;;;441.03;;
22768;SDS011;13001;51.968;5.918;2023-04-03T00:43:38;500.03;;;462.67;;
22768;SDS011;13001;51.968;5.918;2023-04-03T00:46:05;471.90;;;438.57;;
22768;SDS011;13001;51.968;5.918;2023-04-03T00:51:02;552.57;;;511.47;;
22768;SDS011;13001;51.968;5.918;2023-04-03T00:53:35;651.07;;;601.40;;
22768;SDS011;13001;51.968;5.918;2023-04-03T00:56:03;644.57;;;595.33;;
22768;SDS011;13001;51.968;5.918;2023-04-03T00:58:37;572.40;;;529.07;;
22768;SDS011;13001;51.968;5.918;2023-04-03T01:01:03;535.63;;;496.50;;
22768;SDS011;13001;51.968;5.918;2023-04-03T01:03:33;507.70;;;471.27;;
22768;SDS011;13001;51.968;5.918;2023-04-03T01:06:00;525.53;;;485.90;;
22768;SDS011;13001;51.968;5.918;2023-04-03T01:08:27;479.30;;;445.47;;
22768;SDS011;13001;51.968;5.918;2023-04-03T01:10:55;467.50;;;434.47;;
22768;SDS011;13001;51.968;5.918;2023-04-03T01:13:26;424.97;;;395.80;;
22768;SDS011;13001;51.968;5.918;2023-04-03T01:15:54;465.27;;;432.47;;
22768;SDS011;13001;51.968;5.918;2023-04-03T01:18:22;456.10;;;425.10;;
22768;SDS011;13001;51.968;5.918;2023-04-03T01:20:58;447.30;;;417.53;;
22768;SDS011;13001;51.968;5.918;2023-04-03T01:23:32;448.47;;;418.73;;
22768;SDS011;13001;51.968;5.918;2023-04-03T01:26:00;463.67;;;431.67;;
22768;SDS011;13001;51.968;5.918;2023-04-03T01:28:28;439.97;;;410.43;;
22768;SDS011;13001;51.968;5.918;2023-04-03T01:31:08;443.40;;;413.93;;
22768;SDS011;13001;51.968;5.918;2023-04-03T01:33:25;420.13;;;391.90;;
22768;SDS011;13001;51.968;5.918;2023-04-03T01:35:52;408.37;;;382.00;;
22768;SDS011;13001;51.968;5.918;2023-04-03T01:38:19;403.80;;;377.87;;
22768;SDS011;13001;51.968;5.918;2023-04-03T01:40:47;418.97;;;390.83;;
22768;SDS011;13001;51.968;5.918;2023-04-03T01:43:14;349.93;;;327.30;;
22768;SDS011;13001;51.968;5.918;2023-04-03T01:45:41;365.00;;;340.40;;
22768;SDS011;13001;51.968;5.918;2023-04-03T01:48:08;381.53;;;356.13;;
22768;SDS011;13001;51.968;5.918;2023-04-03T01:50:36;334.23;;;312.53;;
22768;SDS011;13001;51.968;5.918;2023-04-03T01:53:03;365.90;;;341.20;;
22768;SDS011;13001;51.968;5.918;2023-04-03T01:55:30;345.83;;;322.00;;
22768;SDS011;13001;51.968;5.918;2023-04-03T01:57:58;318.27;;;297.47;;
22768;SDS011;13001;51.968;5.918;2023-04-03T02:00:25;297.10;;;277.77;;
22768;SDS011;13001;51.968;5.918;2023-04-03T02:02:53;327.87;;;306.43;;
22768;SDS011;13001;51.968;5.918;2023-04-03T02:05:20;281.63;;;263.37;;
22768;SDS011;13001;51.968;5.918;2023-04-03T02:07:47;294.27;;;275.10;;
22768;SDS011;13001;51.968;5.918;2023-04-03T02:10:14;266.63;;;249.60;;
22768;SDS011;13001;51.968;5.918;2023-04-03T02:12:41;280.40;;;262.37;;
22768;SDS011;13001;51.968;5.918;2023-04-03T02:15:09;260.27;;;243.93;;
22768;SDS011;13001;51.968;5.918;2023-04-03T02:17:36;274.03;;;257.10;;
22768;SDS011;13001;51.968;5.918;2023-04-03T02:20:04;279.40;;;261.67;;
22768;SDS011;13001;51.968;5.918;2023-04-03T02:22:33;307.73;;;288.20;;
22768;SDS011;13001;51.968;5.918;2023-04-03T02:25:00;278.77;;;261.33;;
22768;SDS011;13001;51.968;5.918;2023-04-03T02:27:29;297.60;;;278.17;;
22768;SDS011;13001;51.968;5.918;2023-04-03T02:29:57;320.40;;;299.67;;
22768;SDS011;13001;51.968;5.918;2023-04-03T02:32:25;321.10;;;300.27;;
22768;SDS011;13001;51.968;5.918;2023-04-03T02:34:52;333.90;;;312.47;;
22768;SDS011;13001;51.968;5.918;2023-04-03T02:37:19;343.20;;;320.70;;
22768;SDS011;13001;51.968;5.918;2023-04-03T02:39:47;352.07;;;329.23;;
22768;SDS011;13001;51.968;5.918;2023-04-03T02:42:14;379.57;;;354.93;;
22768;SDS011;13001;51.968;5.918;2023-04-03T02:44:43;387.93;;;361.90;;
22768;SDS011;13001;51.968;5.918;2023-04-03T02:47:11;363.17;;;339.60;;
22768;SDS011;13001;51.968;5.918;2023-04-03T02:49:38;397.30;;;371.37;;
22768;SDS011;13001;51.968;5.918;2023-04-03T02:52:05;371.00;;;346.67;;
22768;SDS011;13001;51.968;5.918;2023-04-03T02:54:32;399.87;;;373.67;;
22768;SDS011;13001;51.968;5.918;2023-04-03T02:57:00;376.80;;;352.17;;
22768;SDS011;13001;51.968;5.918;2023-04-03T02:59:27;387.03;;;361.93;;
22768;SDS011;13001;51.968;5.918;2023-04-03T03:01:55;374.53;;;349.87;;
22768;SDS011;13001;51.968;5.918;2023-04-03T03:04:22;393.17;;;367.53;;
22768;SDS011;13001;51.968;5.918;2023-04-03T03:06:49;392.70;;;366.40;;
22768;SDS011;13001;51.968;5.918;2023-04-03T03:09:17;399.27;;;373.00;;
22768;SDS011;13001;51.968;5.918;2023-04-03T03:11:44;396.30;;;370.20;;
22768;SDS011;13001;51.968;5.918;2023-04-03T03:14:11;391.90;;;365.23;;
22768;SDS011;13001;51.968;5.918;2023-04-03T03:16:38;401.03;;;374.30;;
22768;SDS011;13001;51.968;5.918;2023-04-03T03:19:06;407.17;;;380.13;;
22768;SDS011;13001;51.968;5.918;2023-04-03T03:21:33;381.93;;;356.80;;
22768;SDS011;13001;51.968;5.918;2023-04-03T03:24:00;316.73;;;296.53;;
22768;SDS011;13001;51.968;5.918;2023-04-03T03:26:27;334.10;;;312.07;;
22768;SDS011;13001;51.968;5.918;2023-04-03T03:28:55;316.53;;;296.23;;
22768;SDS011;13001;51.968;5.918;2023-04-03T03:31:22;332.13;;;310.37;;
22768;SDS011;13001;51.968;5.918;2023-04-03T03:33:49;351.17;;;328.83;;
22768;SDS011;13001;51.968;5.918;2023-04-03T03:36:16;348.73;;;326.17;;
22768;SDS011;13001;51.968;5.918;2023-04-03T03:38:44;358.00;;;335.00;;
22768;SDS011;13001;51.968;5.918;2023-04-03T03:41:11;307.03;;;287.57;;
22768;SDS011;13001;51.968;5.918;2023-04-03T03:43:38;319.03;;;298.80;;
22768;SDS011;13001;51.968;5.918;2023-04-03T03:46:06;366.20;;;341.63;;
22768;SDS011;13001;51.968;5.918;2023-04-03T03:48:33;372.27;;;346.17;;
22768;SDS011;13001;51.968;5.918;2023-04-03T03:51:00;342.40;;;319.67;;
22768;SDS011;13001;51.968;5.918;2023-04-03T03:53:27;316.60;;;296.10;;
22768;SDS011;13001;51.968;5.918;2023-04-03T03:55:55;307.93;;;288.10;;
22768;SDS011;13001;51.968;5.918;2023-04-03T03:58:22;327.37;;;305.80;;
22768;SDS011;13001;51.968;5.918;2023-04-03T04:00:49;295.33;;;275.97;;
22768;SDS011;13001;51.968;5.918;2023-04-03T04:03:16;339.00;;;316.60;;
22768;SDS011;13001;51.968;5.918;2023-04-03T04:05:44;421.00;;;391.13;;
22768;SDS011;13001;51.968;5.918;2023-04-03T04:08:11;324.47;;;303.10;;
22768;SDS011;13001;51.968;5.918;2023-04-03T04:10:38;355.23;;;331.23;;
22768;SDS011;13001;51.968;5.918;2023-04-03T04:13:06;350.40;;;326.83;;
22768;SDS011;13001;51.968;5.918;2023-04-03T04:15:33;359.80;;;336.20;;
22768;SDS011;13001;51.968;5.918;2023-04-03T04:18:00;294.03;;;275.20;;
22768;SDS011;13001;51.968;5.918;2023-04-03T04:20:28;337.17;;;314.20;;
22768;SDS011;13001;51.968;5.918;2023-04-03T04:22:55;328.80;;;307.23;;
22768;SDS011;13001;51.968;5.918;2023-04-03T04:25:22;420.73;;;391.10;;
22768;SDS011;13001;51.968;5.918;2023-04-03T04:27:50;302.17;;;282.27;;
22768;SDS011;13001;51.968;5.918;2023-04-03T04:30:17;416.23;;;386.87;;
22768;SDS011;13001;51.968;5.918;2023-04-03T04:32:44;295.87;;;276.40;;
22768;SDS011;13001;51.968;5.918;2023-04-03T04:35:11;338.67;;;315.97;;
22768;SDS011;13001;51.968;5.918;2023-04-03T04:37:39;357.20;;;333.17;;
22768;SDS011;13001;51.968;5.918;2023-04-03T04:40:06;496.73;;;459.93;;
22768;SDS011;13001;51.968;5.918;2023-04-03T04:42:33;352.07;;;328.97;;
22768;SDS011;13001;51.968;5.918;2023-04-03T04:45:01;402.77;;;375.17;;
22768;SDS011;13001;51.968;5.918;2023-04-03T04:47:29;420.57;;;390.40;;
22768;SDS011;13001;51.968;5.918;2023-04-03T04:49:56;422.43;;;392.47;;
22768;SDS011;13001;51.968;5.918;2023-04-03T04:52:23;478.70;;;444.10;;
22768;SDS011;13001;51.968;5.918;2023-04-03T04:54:51;338.00;;;315.50;;
22768;SDS011;13001;51.968;5.918;2023-04-03T04:57:18;336.67;;;314.57;;
22768;SDS011;13001;51.968;5.918;2023-04-03T04:59:46;398.33;;;370.93;;
22768;SDS011;13001;51.968;5.918;2023-04-03T05:02:13;444.73;;;413.17;;
22768;SDS011;13001;51.968;5.918;2023-04-03T05:04:40;365.33;;;340.57;;
22768;SDS011;13001;51.968;5.918;2023-04-03T05:07:07;302.10;;;282.00;;
22768;SDS011;13001;51.968;5.918;2023-04-03T05:09:35;352.97;;;328.43;;
22768;SDS011;13001;51.968;5.918;2023-04-03T05:12:02;418.70;;;390.30;;
22768;SDS011;13001;51.968;5.918;2023-04-03T05:14:30;406.53;;;378.13;;
22768;SDS011;13001;51.968;5.918;2023-04-03T05:16:57;389.00;;;361.80;;
22768;SDS011;13001;51.968;5.918;2023-04-03T05:19:24;398.10;;;371.17;;
22768;SDS011;13001;51.968;5.918;2023-04-03T05:21:51;399.70;;;371.87;;
22768;SDS011;13001;51.968;5.918;2023-04-03T05:24:19;140.57;;;131.13;;
22768;SDS011;13001;51.968;5.918;2023-04-03T05:26:46;365.20;;;340.57;;
22768;SDS011;13001;51.968;5.918;2023-04-03T05:29:13;338.50;;;314.80;;
22768;SDS011;13001;51.968;5.918;2023-04-03T05:31:40;300.77;;;280.57;;
22768;SDS011;13001;51.968;5.918;2023-04-03T05:34:08;357.50;;;332.90;;
22768;SDS011;13001;51.968;5.918;2023-04-03T05:36:36;222.37;;;207.23;;
22768;SDS011;13001;51.968;5.918;2023-04-03T05:39:03;382.83;;;352.63;;
22768;SDS011;13001;51.968;5.918;2023-04-03T05:41:30;285.60;;;264.40;;
22768;SDS011;13001;51.968;5.918;2023-04-03T05:43:58;250.03;;;233.17;;
22768;SDS011;13001;51.968;5.918;2023-04-03T05:46:25;201.73;;;187.73;;
22768;SDS011;13001;51.968;5.918;2023-04-03T05:48:52;118.73;;;111.07;;
22768;SDS011;13001;51.968;5.918;2023-04-03T05:54:17;170.97;;;159.37;;
22768;SDS011;13001;51.968;5.918;2023-04-03T05:56:39;280.70;;;259.80;;
22768;SDS011;13001;51.968;5.918;2023-04-03T05:59:06;264.63;;;243.53;;
22768;SDS011;13001;51.968;5.918;2023-04-03T06:01:33;108.77;;;100.90;;
22768;SDS011;13001;51.968;5.918;2023-04-03T06:04:01;142.67;;;131.93;;
22768;SDS011;13001;51.968;5.918;2023-04-03T06:06:44;98.97;;;91.70;;
22768;SDS011;13001;51.968;5.918;2023-04-03T06:11:38;202.17;;;184.93;;
22768;SDS011;13001;51.968;5.918;2023-04-03T06:14:06;87.77;;;81.77;;
22768;SDS011;13001;51.968;5.918;2023-04-03T06:16:34;124.43;;;116.03;;
22768;SDS011;13001;51.968;5.918;2023-04-03T06:19:01;91.20;;;85.03;;
22768;SDS011;13001;51.968;5.918;2023-04-03T06:21:30;123.67;;;114.47;;
22768;SDS011;13001;51.968;5.918;2023-04-03T06:23:57;123.63;;;114.30;;
22768;SDS011;13001;51.968;5.918;2023-04-03T06:26:24;46.20;;;43.23;;
22768;SDS011;13001;51.968;5.918;2023-04-03T06:28:52;185.40;;;168.43;;
22768;SDS011;13001;51.968;5.918;2023-04-03T06:31:19;231.40;;;211.43;;
22768;SDS011;13001;51.968;5.918;2023-04-03T06:33:47;146.53;;;134.47;;
22768;SDS011;13001;51.968;5.918;2023-04-03T06:36:14;57.40;;;54.13;;
22768;SDS011;13001;51.968;5.918;2023-04-03T06:38:44;53.10;;;50.03;;
22768;SDS011;13001;51.968;5.918;2023-04-03T06:41:11;47.97;;;44.93;;
22768;SDS011;13001;51.968;5.918;2023-04-03T06:43:38;72.70;;;68.20;;
22768;SDS011;13001;51.968;5.918;2023-04-03T06:46:05;91.40;;;85.17;;
22768;SDS011;13001;51.968;5.918;2023-04-03T06:48:36;114.47;;;106.70;;
22768;SDS011;13001;51.968;5.918;2023-04-03T06:51:03;109.30;;;102.07;;
22768;SDS011;13001;51.968;5.918;2023-04-03T06:53:33;109.03;;;101.87;;
22768;SDS011;13001;51.968;5.918;2023-04-03T06:56:00;103.13;;;96.43;;
22768;SDS011;13001;51.968;5.918;2023-04-03T11:34:54;270.80;;;249.17;;
22768;SDS011;13001;51.968;5.918;2023-04-03T11:37:25;228.50;;;211.27;;
22768;SDS011;13001;51.968;5.918;2023-04-03T11:40:00;415.00;;;372.37;;
22768;SDS011;13001;51.968;5.918;2023-04-03T11:42:30;356.37;;;327.60;;
22768;SDS011;13001;51.968;5.918;2023-04-03T11:47:48;444.60;;;402.80;;
22768;SDS011;13001;51.968;5.918;2023-04-03T11:50:59;316.37;;;288.33;;
22768;SDS011;13001;51.968;5.918;2023-04-03T12:08:29;374.10;;;343.87;;
22768;SDS011;13001;51.968;5.918;2023-04-03T12:13:42;592.50;;;532.37;;
22768;SDS011;13001;51.968;5.918;2023-04-03T12:21:24;338.97;;;315.03;;
22768;SDS011;13001;51.968;5.918;2023-04-03T12:24:02;476.60;;;435.10;;
22768;SDS011;13001;51.968;5.918;2023-04-03T12:26:40;549.47;;;489.77;;
22768;SDS011;13001;51.968;5.918;2023-04-03T12:37:06;504.27;;;463.17;;
22768;SDS011;13001;51.968;5.918;2023-04-03T12:39:48;519.47;;;471.37;;
22768;SDS011;13001;51.968;5.918;2023-04-03T12:47:43;565.30;;;518.07;;
22768;SDS011;13001;51.968;5.918;2023-04-03T12:50:18;425.27;;;393.70;;
22768;SDS011;13001;51.968;5.918;2023-04-03T12:53:01;666.33;;;533.97;;
22768;SDS011;13001;51.968;5.918;2023-04-03T12:55:29;433.03;;;398.03;;
22768;SDS011;13001;51.968;5.918;2023-04-03T12:57:56;409.90;;;379.70;;
22768;SDS011;13001;51.968;5.918;2023-04-03T13:00:28;403.83;;;371.50;;
22768;SDS011;13001;51.968;5.918;2023-04-03T13:02:55;419.97;;;383.63;;
22768;SDS011;13001;51.968;5.918;2023-04-03T13:05:22;373.03;;;347.17;;
22768;SDS011;13001;51.968;5.918;2023-04-03T13:07:56;450.47;;;412.93;;
22768;SDS011;13001;51.968;5.918;2023-04-03T13:10:23;362.23;;;337.87;;
22768;SDS011;13001;51.968;5.918;2023-04-03T13:12:54;486.63;;;441.47;;
22768;SDS011;13001;51.968;5.918;2023-04-03T13:17:52;487.07;;;443.07;;
22768;SDS011;13001;51.968;5.918;2023-04-03T13:23:02;390.77;;;361.90;;
22768;SDS011;13001;51.968;5.918;2023-04-03T13:25:28;543.77;;;491.97;;
22768;SDS011;13001;51.968;5.918;2023-04-03T13:27:55;487.33;;;447.77;;
22768;SDS011;13001;51.968;5.918;2023-04-03T13:30:32;590.27;;;537.83;;
22768;SDS011;13001;51.968;5.918;2023-04-03T13:33:01;431.00;;;400.17;;
22768;SDS011;13001;51.968;5.918;2023-04-03T13:35:33;549.07;;;497.13;;
22768;SDS011;13001;51.968;5.918;2023-04-03T13:38:02;361.37;;;332.90;;
22768;SDS011;13001;51.968;5.918;2023-04-03T13:40:29;645.03;;;578.70;;
22768;SDS011;13001;51.968;5.918;2023-04-03T13:43:00;419.17;;;388.27;;
22768;SDS011;13001;51.968;5.918;2023-04-03T13:45:28;637.87;;;573.47;;
22768;SDS011;13001;51.968;5.918;2023-04-03T13:53:22;547.10;;;499.63;;
22768;SDS011;13001;51.968;5.918;2023-04-03T13:56:04;597.63;;;543.80;;
22768;SDS011;13001;51.968;5.918;2023-04-03T13:58:28;352.80;;;330.47;;
22768;SDS011;13001;51.968;5.918;2023-04-03T14:01:00;517.40;;;478.60;;
22768;SDS011;13001;51.968;5.918;2023-04-03T14:03:28;576.77;;;521.07;;
22768;SDS011;13001;51.968;5.918;2023-04-03T14:05:53;506.33;;;461.47;;
22768;SDS011;13001;51.968;5.918;2023-04-03T14:08:21;580.53;;;530.27;;
22768;SDS011;13001;51.968;5.918;2023-04-03T14:10:48;348.10;;;325.37;;
22768;SDS011;13001;51.968;5.918;2023-04-03T14:13:17;375.30;;;349.20;;
22768;SDS011;13001;51.968;5.918;2023-04-03T14:15:46;432.23;;;400.87;;
22768;SDS011;13001;51.968;5.918;2023-04-03T14:18:16;405.67;;;376.20;;
22768;SDS011;13001;51.968;5.918;2023-04-03T14:20:43;457.27;;;425.03;;
22768;SDS011;13001;51.968;5.918;2023-04-03T14:23:11;405.80;;;380.20;;
22768;SDS011;13001;51.968;5.918;2023-04-03T14:25:38;441.43;;;407.87;;
22768;SDS011;13001;51.968;5.918;2023-04-03T14:28:19;416.70;;;389.83;;
22768;SDS011;13001;51.968;5.918;2023-04-03T14:30:47;515.50;;;470.60;;
22768;SDS011;13001;51.968;5.918;2023-04-03T14:33:17;507.80;;;465.43;;
22768;SDS011;13001;51.968;5.918;2023-04-03T14:35:46;560.30;;;512.53;;
22768;SDS011;13001;51.968;5.918;2023-04-03T14:38:26;493.13;;;451.10;;
22768;SDS011;13001;51.968;5.918;2023-04-03T14:40:54;471.30;;;433.50;;
22768;SDS011;13001;51.968;5.918;2023-04-03T14:43:21;431.40;;;400.90;;
22768;SDS011;13001;51.968;5.918;2023-04-03T14:45:49;513.47;;;475.27;;
22768;SDS011;13001;51.968;5.918;2023-04-03T14:48:18;484.80;;;448.73;;
22768;SDS011;13001;51.968;5.918;2023-04-03T14:50:45;398.73;;;370.80;;
22768;SDS011;13001;51.968;5.918;2023-04-03T14:53:13;423.83;;;394.23;;
22768;SDS011;13001;51.968;5.918;2023-04-03T14:55:44;524.53;;;482.83;;
22768;SDS011;13001;51.968;5.918;2023-04-03T14:58:13;535.93;;;489.50;;
22768;SDS011;13001;51.968;5.918;2023-04-03T15:00:41;526.00;;;478.23;;
22768;SDS011;13001;51.968;5.918;2023-04-03T15:03:20;461.87;;;430.40;;
22768;SDS011;13001;51.968;5.918;2023-04-03T15:05:41;610.33;;;548.77;;
22768;SDS011;13001;51.968;5.918;2023-04-03T15:08:13;416.97;;;389.47;;
22768;SDS011;13001;51.968;5.918;2023-04-03T15:10:37;496.40;;;451.47;;
22768;SDS011;13001;51.968;5.918;2023-04-03T15:13:04;530.83;;;488.10;;
22768;SDS011;13001;51.968;5.918;2023-04-03T15:15:32;551.57;;;503.60;;
22768;SDS011;13001;51.968;5.918;2023-04-03T15:18:00;506.10;;;459.80;;
22768;SDS011;13001;51.968;5.918;2023-04-03T15:20:28;489.93;;;448.43;;
22768;SDS011;13001;51.968;5.918;2023-04-03T15:22:57;486.53;;;444.30;;
22768;SDS011;13001;51.968;5.918;2023-04-03T15:25:26;455.67;;;421.67;;
22768;SDS011;13001;51.968;5.918;2023-04-03T15:27:54;483.33;;;446.90;;
22768;SDS011;13001;51.968;5.918;2023-04-03T15:30:22;304.53;;;285.37;;
22768;SDS011;13001;51.968;5.918;2023-04-03T15:32:49;418.67;;;386.80;;
22768;SDS011;13001;51.968;5.918;2023-04-03T15:35:17;354.57;;;329.87;;
22768;SDS011;13001;51.968;5.918;2023-04-03T15:37:44;548.73;;;490.67;;
22768;SDS011;13001;51.968;5.918;2023-04-03T15:40:11;494.57;;;445.07;;
22768;SDS011;13001;51.968;5.918;2023-04-03T15:42:38;513.90;;;464.23;;
22768;SDS011;13001;51.968;5.918;2023-04-03T15:45:06;418.63;;;387.73;;
22768;SDS011;13001;51.968;5.918;2023-04-03T15:47:33;536.83;;;483.47;;
22768;SDS011;13001;51.968;5.918;2023-04-03T15:50:01;487.17;;;447.00;;
22768;SDS011;13001;51.968;5.918;2023-04-03T15:52:28;406.63;;;378.13;;
22768;SDS011;13001;51.968;5.918;2023-04-03T15:54:55;372.60;;;348.47;;
22768;SDS011;13001;51.968;5.918;2023-04-03T15:57:22;346.63;;;319.47;;
22768;SDS011;13001;51.968;5.918;2023-04-03T15:59:52;315.47;;;289.60;;
22768;SDS011;13001;51.968;5.918;2023-04-03T16:02:19;597.97;;;471.60;;
22768;SDS011;13001;51.968;5.918;2023-04-03T16:04:47;363.73;;;324.87;;
22768;SDS011;13001;51.968;5.918;2023-04-03T16:07:17;329.27;;;305.47;;
22768;SDS011;13001;51.968;5.918;2023-04-03T16:09:44;464.10;;;425.13;;
22768;SDS011;13001;51.968;5.918;2023-04-03T16:12:11;410.47;;;376.00;;
22768;SDS011;13001;51.968;5.918;2023-04-03T16:14:38;430.77;;;386.57;;
22768;SDS011;13001;51.968;5.918;2023-04-03T16:17:05;479.50;;;429.53;;
22768;SDS011;13001;51.968;5.918;2023-04-03T16:19:33;411.03;;;383.47;;
22768;SDS011;13001;51.968;5.918;2023-04-03T16:22:00;346.53;;;322.13;;
22768;SDS011;13001;51.968;5.918;2023-04-03T16:24:28;473.57;;;422.17;;
22768;SDS011;13001;51.968;5.918;2023-04-03T16:26:56;201.23;;;187.13;;
22768;SDS011;13001;51.968;5.918;2023-04-03T16:29:23;344.53;;;321.67;;
22768;SDS011;13001;51.968;5.918;2023-04-03T16:31:50;424.97;;;383.93;;
22768;SDS011;13001;51.968;5.918;2023-04-03T16:34:18;375.47;;;346.43;;
22768;SDS011;13001;51.968;5.918;2023-04-03T16:36:45;267.80;;;245.70;;
22768;SDS011;13001;51.968;5.918;2023-04-03T16:39:13;433.77;;;393.57;;
22768;SDS011;13001;51.968;5.918;2023-04-03T16:41:40;397.27;;;356.30;;
22768;SDS011;13001;51.968;5.918;2023-04-03T16:44:07;195.23;;;180.80;;
22768;SDS011;13001;51.968;5.918;2023-04-03T16:46:34;372.77;;;343.77;;
22768;SDS011;13001;51.968;5.918;2023-04-03T16:49:02;478.77;;;403.30;;
22768;SDS011;13001;51.968;5.918;2023-04-03T16:51:29;353.13;;;322.13;;
22768;SDS011;13001;51.968;5.918;2023-04-03T16:53:57;287.73;;;262.23;;
22768;SDS011;13001;51.968;5.918;2023-04-03T16:56:25;332.00;;;302.90;;
22768;SDS011;13001;51.968;5.918;2023-04-03T16:58:55;235.67;;;212.47;;
22768;SDS011;13001;51.968;5.918;2023-04-03T17:01:23;284.63;;;256.20;;
22768;SDS011;13001;51.968;5.918;2023-04-03T17:03:50;287.17;;;263.47;;
22768;SDS011;13001;51.968;5.918;2023-04-03T17:06:18;259.63;;;237.37;;
22768;SDS011;13001;51.968;5.918;2023-04-03T17:08:47;391.03;;;353.27;;
22768;SDS011;13001;51.968;5.918;2023-04-03T17:11:14;384.47;;;351.43;;
22768;SDS011;13001;51.968;5.918;2023-04-03T17:13:41;266.03;;;245.20;;
22768;SDS011;13001;51.968;5.918;2023-04-03T17:16:10;392.53;;;359.73;;
22768;SDS011;13001;51.968;5.918;2023-04-03T17:18:38;411.30;;;376.93;;
22768;SDS011;13001;51.968;5.918;2023-04-03T17:21:06;429.70;;;391.47;;
22768;SDS011;13001;51.968;5.918;2023-04-03T17:23:33;319.70;;;291.47;;
22768;SDS011;13001;51.968;5.918;2023-04-03T17:26:02;335.90;;;305.63;;
22768;SDS011;13001;51.968;5.918;2023-04-03T17:28:29;382.73;;;353.37;;
22768;SDS011;13001;51.968;5.918;2023-04-03T17:30:58;400.90;;;364.30;;
22768;SDS011;13001;51.968;5.918;2023-04-03T17:33:26;377.53;;;351.23;;
22768;SDS011;13001;51.968;5.918;2023-04-03T17:35:56;345.07;;;322.50;;
22768;SDS011;13001;51.968;5.918;2023-04-03T17:38:24;311.83;;;291.93;;
22768;SDS011;13001;51.968;5.918;2023-04-03T17:40:55;294.60;;;276.00;;
22768;SDS011;13001;51.968;5.918;2023-04-03T17:43:21;450.13;;;406.93;;
22768;SDS011;13001;51.968;5.918;2023-04-03T17:45:48;311.37;;;289.83;;
22768;SDS011;13001;51.968;5.918;2023-04-03T17:48:16;246.40;;;230.53;;
22768;SDS011;13001;51.968;5.918;2023-04-03T17:50:43;309.20;;;287.17;;
22768;SDS011;13001;51.968;5.918;2023-04-03T17:53:11;272.97;;;250.57;;
22768;SDS011;13001;51.968;5.918;2023-04-03T17:55:40;355.50;;;328.50;;
22768;SDS011;13001;51.968;5.918;2023-04-03T17:58:07;348.57;;;315.27;;
22768;SDS011;13001;51.968;5.918;2023-04-03T18:00:35;314.27;;;285.37;;
22768;SDS011;13001;51.968;5.918;2023-04-03T18:03:03;305.20;;;280.53;;
22768;SDS011;13001;51.968;5.918;2023-04-03T18:05:30;326.43;;;296.83;;
22768;SDS011;13001;51.968;5.918;2023-04-03T18:07:57;357.00;;;319.43;;
22768;SDS011;13001;51.968;5.918;2023-04-03T18:10:26;173.53;;;158.33;;
22768;SDS011;13001;51.968;5.918;2023-04-03T18:12:53;304.40;;;281.03;;
22768;SDS011;13001;51.968;5.918;2023-04-03T18:15:22;256.37;;;237.47;;
22768;SDS011;13001;51.968;5.918;2023-04-03T18:17:50;225.30;;;204.33;;
22768;SDS011;13001;51.968;5.918;2023-04-03T18:20:19;124.37;;;112.83;;
22768;SDS011;13001;51.968;5.918;2023-04-03T18:22:46;145.10;;;132.70;;
22768;SDS011;13001;51.968;5.918;2023-04-03T18:25:14;204.43;;;184.47;;
22768;SDS011;13001;51.968;5.918;2023-04-03T18:27:43;148.73;;;136.53;;
22768;SDS011;13001;51.968;5.918;2023-04-03T18:30:12;98.43;;;90.23;;
22768;SDS011;13001;51.968;5.918;2023-04-03T18:32:40;145.00;;;130.73;;
22768;SDS011;13001;51.968;5.918;2023-04-03T18:35:08;107.90;;;99.53;;
22768;SDS011;13001;51.968;5.918;2023-04-03T18:37:35;148.73;;;135.97;;
22768;SDS011;13001;51.968;5.918;2023-04-03T18:40:03;115.87;;;106.50;;
22768;SDS011;13001;51.968;5.918;2023-04-03T18:42:30;104.57;;;96.47;;
22768;SDS011;13001;51.968;5.918;2023-04-03T18:44:58;117.40;;;108.83;;
22768;SDS011;13001;51.968;5.918;2023-04-03T18:47:26;113.53;;;105.33;;
22768;SDS011;13001;51.968;5.918;2023-04-03T18:49:54;170.83;;;157.00;;
22768;SDS011;13001;51.968;5.918;2023-04-03T18:52:22;109.57;;;101.83;;
22768;SDS011;13001;51.968;5.918;2023-04-03T18:54:50;147.13;;;136.87;;
22768;SDS011;13001;51.968;5.918;2023-04-03T18:57:18;113.10;;;105.10;;
22768;SDS011;13001;51.968;5.918;2023-04-03T18:59:45;146.67;;;135.47;;
22768;SDS011;13001;51.968;5.918;2023-04-03T19:02:13;135.50;;;125.50;;
22768;SDS011;13001;51.968;5.918;2023-04-03T19:04:41;102.07;;;95.27;;
22768;SDS011;13001;51.968;5.918;2023-04-03T19:07:09;114.77;;;106.70;;
22768;SDS011;13001;51.968;5.918;2023-04-03T19:09:36;142.67;;;131.67;;
22768;SDS011;13001;51.968;5.918;2023-04-03T19:12:07;140.13;;;129.90;;
22768;SDS011;13001;51.968;5.918;2023-04-03T19:14:34;169.43;;;156.30;;
22768;SDS011;13001;51.968;5.918;2023-04-03T19:17:02;160.83;;;150.10;;
22768;SDS011;13001;51.968;5.918;2023-04-03T19:19:31;130.47;;;121.27;;
22768;SDS011;13001;51.968;5.918;2023-04-03T19:21:58;134.27;;;124.50;;
22768;SDS011;13001;51.968;5.918;2023-04-03T19:24:25;131.00;;;121.37;;
22768;SDS011;13001;51.968;5.918;2023-04-03T19:26:52;149.77;;;138.57;;
22768;SDS011;13001;51.968;5.918;2023-04-03T19:29:20;141.83;;;131.47;;
22768;SDS011;13001;51.968;5.918;2023-04-03T19:31:47;146.40;;;135.50;;
22768;SDS011;13001;51.968;5.918;2023-04-03T19:34:14;148.23;;;137.37;;
22768;SDS011;13001;51.968;5.918;2023-04-03T19:36:41;151.80;;;140.40;;
22768;SDS011;13001;51.968;5.918;2023-04-03T19:39:10;156.20;;;144.37;;